sensor_id;sensor_type;location;lat;lon;timestamp;temperature;humidity
11736;DHT22;5924;51.398;7.088;2023-01-19T00:01:11;1.30;99.90
11736;DHT22;5924;51.398;7.088;2023-01-19T00:03:37;1.30;99.90
11736;DHT22;5924;51.398;7.088;2023-01-19T00:06:06;1.20;99.90
11736;DHT22;5924;51.398;7.088;2023-01-19T00:08:32;1.20;99.90
11736;DHT22;5924;51.398;7.088;2023-01-19T00:10:59;1.20;99.90
11736;DHT22;5924;51.398;7.088;2023-01-19T00:13:24;1.20;99.90
11736;DHT22;5924;51.398;7.088;2023-01-19T00:15:50;2.40;99.90
11736;DHT22;5924;51.398;7.088;2023-01-19T00:18:15;3.70;99.90
11736;DHT22;5924;51.398;7.088;2023-01-19T00:20:44;1.20;99.90
11736;DHT22;5924;51.398;7.088;2023-01-19T00:23:10;1.20;99.90
11736;DHT22;5924;51.398;7.088;2023-01-19T00:25:37;1.30;99.90
11736;DHT22;5924;51.398;7.088;2023-01-19T00:28:07;1.30;99.90
11736;DHT22;5924;51.398;7.088;2023-01-19T00:30:33;1.30;99.90
11736;DHT22;5924;51.398;7.088;2023-01-19T00:32:59;1.30;99.90
11736;DHT22;5924;51.398;7.088;2023-01-19T00:35:24;1.30;99.90
11736;DHT22;5924;51.398;7.088;2023-01-19T00:37:50;1.50;99.90
11736;DHT22;5924;51.398;7.088;2023-01-19T00:40:16;1.30;99.90
11736;DHT22;5924;51.398;7.088;2023-01-19T00:42:42;1.30;99.90
11736;DHT22;5924;51.398;7.088;2023-01-19T00:45:18;1.30;99.90
11736;DHT22;5924;51.398;7.088;2023-01-19T00:47:44;1.30;99.90
11736;DHT22;5924;51.398;7.088;2023-01-19T00:50:12;2.80;99.90
11736;DHT22;5924;51.398;7.088;2023-01-19T00:52:39;1.30;99.90
11736;DHT22;5924;51.398;7.088;2023-01-19T00:55:06;1.40;99.90
11736;DHT22;5924;51.398;7.088;2023-01-19T00:57:32;1.40;99.90
11736;DHT22;5924;51.398;7.088;2023-01-19T00:59:58;1.40;99.90
11736;DHT22;5924;51.398;7.088;2023-01-19T01:02:23;1.40;99.90
11736;DHT22;5924;51.398;7.088;2023-01-19T01:04:49;1.50;99.90
11736;DHT22;5924;51.398;7.088;2023-01-19T01:07:20;-1.00;99.90
11736;DHT22;5924;51.398;7.088;2023-01-19T01:09:46;1.50;99.90
11736;DHT22;5924;51.398;7.088;2023-01-19T01:12:12;1.50;99.90
11736;DHT22;5924;51.398;7.088;2023-01-19T01:14:37;1.50;99.90
11736;DHT22;5924;51.398;7.088;2023-01-19T01:17:03;1.80;99.90
11736;DHT22;5924;51.398;7.088;2023-01-19T01:19:29;1.50;99.90
11736;DHT22;5924;51.398;7.088;2023-01-19T01:21:54;1.50;99.90
11736;DHT22;5924;51.398;7.088;2023-01-19T01:24:20;1.50;99.90
11736;DHT22;5924;51.398;7.088;2023-01-19T01:26:46;1.50;99.90
11736;DHT22;5924;51.398;7.088;2023-01-19T01:29:13;1.50;99.90
11736;DHT22;5924;51.398;7.088;2023-01-19T01:31:38;1.40;99.90
11736;DHT22;5924;51.398;7.088;2023-01-19T01:34:04;1.30;99.90
11736;DHT22;5924;51.398;7.088;2023-01-19T01:36:29;1.30;99.90
11736;DHT22;5924;51.398;7.088;2023-01-19T01:38:58;1.30;99.90
11736;DHT22;5924;51.398;7.088;2023-01-19T01:41:24;1.30;99.90
11736;DHT22;5924;51.398;7.088;2023-01-19T01:43:53;1.30;99.90
11736;DHT22;5924;51.398;7.088;2023-01-19T01:46:23;1.30;99.90
11736;DHT22;5924;51.398;7.088;2023-01-19T01:51:39;1.30;99.90
11736;DHT22;5924;51.398;7.088;2023-01-19T01:56:50;1.20;99.90
11736;DHT22;5924;51.398;7.088;2023-01-19T01:59:26;1.20;99.90
11736;DHT22;5924;51.398;7.088;2023-01-19T02:02:00;1.20;99.90
11736;DHT22;5924;51.398;7.088;2023-01-19T02:04:51;1.30;99.90
11736;DHT22;5924;51.398;7.088;2023-01-19T02:10:31;1.30;99.90
11736;DHT22;5924;51.398;7.088;2023-01-19T02:13:15;1.30;99.90
11736;DHT22;5924;51.398;7.088;2023-01-19T02:15:41;1.40;99.90
11736;DHT22;5924;51.398;7.088;2023-01-19T02:18:07;1.30;99.90
11736;DHT22;5924;51.398;7.088;2023-01-19T02:20:34;1.30;99.90
11736;DHT22;5924;51.398;7.088;2023-01-19T02:23:02;1.30;99.90
11736;DHT22;5924;51.398;7.088;2023-01-19T02:25:31;1.40;99.90
11736;DHT22;5924;51.398;7.088;2023-01-19T02:27:56;1.40;99.90
11736;DHT22;5924;51.398;7.088;2023-01-19T02:30:22;1.40;99.90
11736;DHT22;5924;51.398;7.088;2023-01-19T02:32:48;1.40;99.90
11736;DHT22;5924;51.398;7.088;2023-01-19T02:35:14;1.50;99.90
11736;DHT22;5924;51.398;7.088;2023-01-19T02:37:41;1.50;99.90
11736;DHT22;5924;51.398;7.088;2023-01-19T02:40:13;1.50;99.90
11736;DHT22;5924;51.398;7.088;2023-01-19T02:42:49;1.50;99.90
11736;DHT22;5924;51.398;7.088;2023-01-19T02:45:19;1.40;99.90
11736;DHT22;5924;51.398;7.088;2023-01-19T02:47:47;1.30;99.90
11736;DHT22;5924;51.398;7.088;2023-01-19T02:58:52;1.20;99.90
11736;DHT22;5924;51.398;7.088;2023-01-19T03:06:52;1.10;99.90
11736;DHT22;5924;51.398;7.088;2023-01-19T03:09:30;1.00;99.90
11736;DHT22;5924;51.398;7.088;2023-01-19T03:12:07;1.10;99.90
11736;DHT22;5924;51.398;7.088;2023-01-19T03:14:37;1.00;99.90
11736;DHT22;5924;51.398;7.088;2023-01-19T03:17:06;1.00;99.90
11736;DHT22;5924;51.398;7.088;2023-01-19T03:19:38;1.00;99.90
11736;DHT22;5924;51.398;7.088;2023-01-19T03:22:08;3.80;99.90
11736;DHT22;5924;51.398;7.088;2023-01-19T03:24:37;0.90;99.90
11736;DHT22;5924;51.398;7.088;2023-01-19T03:27:16;0.90;99.90
11736;DHT22;5924;51.398;7.088;2023-01-19T03:29:49;0.90;99.90
11736;DHT22;5924;51.398;7.088;2023-01-19T03:32:19;0.90;99.90
11736;DHT22;5924;51.398;7.088;2023-01-19T03:34:48;1.00;99.90
11736;DHT22;5924;51.398;7.088;2023-01-19T03:37:15;1.10;99.90
11736;DHT22;5924;51.398;7.088;2023-01-19T03:39:43;1.20;99.90
11736;DHT22;5924;51.398;7.088;2023-01-19T03:42:13;1.30;99.90
11736;DHT22;5924;51.398;7.088;2023-01-19T03:44:41;1.40;99.90
11736;DHT22;5924;51.398;7.088;2023-01-19T03:47:09;1.40;99.90
11736;DHT22;5924;51.398;7.088;2023-01-19T03:49:36;1.50;99.90
11736;DHT22;5924;51.398;7.088;2023-01-19T03:52:03;1.50;99.90
11736;DHT22;5924;51.398;7.088;2023-01-19T03:54:30;1.60;99.90
11736;DHT22;5924;51.398;7.088;2023-01-19T03:56:56;1.50;99.90
11736;DHT22;5924;51.398;7.088;2023-01-19T03:59:22;1.60;99.90
11736;DHT22;5924;51.398;7.088;2023-01-19T04:01:47;1.50;99.90
11736;DHT22;5924;51.398;7.088;2023-01-19T04:04:13;1.50;99.90
11736;DHT22;5924;51.398;7.088;2023-01-19T04:06:40;1.40;99.90
11736;DHT22;5924;51.398;7.088;2023-01-19T04:09:06;1.40;99.90
11736;DHT22;5924;51.398;7.088;2023-01-19T04:11:32;1.40;99.90
11736;DHT22;5924;51.398;7.088;2023-01-19T04:13:58;1.40;99.90
11736;DHT22;5924;51.398;7.088;2023-01-19T04:16:23;1.40;99.90
11736;DHT22;5924;51.398;7.088;2023-01-19T04:18:49;1.30;99.90
11736;DHT22;5924;51.398;7.088;2023-01-19T04:21:17;1.20;99.90
11736;DHT22;5924;51.398;7.088;2023-01-19T04:23:42;1.20;99.90
11736;DHT22;5924;51.398;7.088;2023-01-19T04:26:11;1.10;99.90
11736;DHT22;5924;51.398;7.088;2023-01-19T04:28:37;4.10;99.90
11736;DHT22;5924;51.398;7.088;2023-01-19T04:31:04;1.00;99.90
11736;DHT22;5924;51.398;7.088;2023-01-19T04:33:31;0.90;99.90
11736;DHT22;5924;51.398;7.088;2023-01-19T04:35:57;0.70;99.90
11736;DHT22;5924;51.398;7.088;2023-01-19T04:38:24;0.70;99.90
11736;DHT22;5924;51.398;7.088;2023-01-19T04:40:51;0.60;99.90
11736;DHT22;5924;51.398;7.088;2023-01-19T04:43:17;0.50;99.90
11736;DHT22;5924;51.398;7.088;2023-01-19T04:45:44;0.50;99.90
11736;DHT22;5924;51.398;7.088;2023-01-19T04:48:10;0.50;99.90
11736;DHT22;5924;51.398;7.088;2023-01-19T04:50:36;0.40;99.90
11736;DHT22;5924;51.398;7.088;2023-01-19T04:53:02;0.40;99.90
11736;DHT22;5924;51.398;7.088;2023-01-19T04:55:27;0.40;99.90
11736;DHT22;5924;51.398;7.088;2023-01-19T04:57:53;0.40;99.90
11736;DHT22;5924;51.398;7.088;2023-01-19T05:00:19;0.30;99.90
11736;DHT22;5924;51.398;7.088;2023-01-19T05:02:45;0.30;99.90
11736;DHT22;5924;51.398;7.088;2023-01-19T05:05:11;0.30;99.90
11736;DHT22;5924;51.398;7.088;2023-01-19T05:07:38;0.40;99.90
11736;DHT22;5924;51.398;7.088;2023-01-19T05:10:04;0.40;99.90
11736;DHT22;5924;51.398;7.088;2023-01-19T05:12:31;0.20;99.90
11736;DHT22;5924;51.398;7.088;2023-01-19T05:14:56;0.40;99.90
11736;DHT22;5924;51.398;7.088;2023-01-19T05:17:22;0.40;99.90
11736;DHT22;5924;51.398;7.088;2023-01-19T05:19:48;0.40;99.90
11736;DHT22;5924;51.398;7.088;2023-01-19T05:22:14;0.40;99.90
11736;DHT22;5924;51.398;7.088;2023-01-19T05:24:40;0.40;99.90
11736;DHT22;5924;51.398;7.088;2023-01-19T05:27:06;0.40;99.90
11736;DHT22;5924;51.398;7.088;2023-01-19T05:29:31;0.40;99.90
11736;DHT22;5924;51.398;7.088;2023-01-19T05:31:57;0.50;99.90
11736;DHT22;5924;51.398;7.088;2023-01-19T05:34:23;0.50;99.90
11736;DHT22;5924;51.398;7.088;2023-01-19T05:36:48;0.50;99.90
11736;DHT22;5924;51.398;7.088;2023-01-19T05:39:14;0.50;99.90
11736;DHT22;5924;51.398;7.088;2023-01-19T05:41:40;0.50;99.90
11736;DHT22;5924;51.398;7.088;2023-01-19T05:44:12;0.50;99.90
11736;DHT22;5924;51.398;7.088;2023-01-19T05:46:38;0.40;99.90
11736;DHT22;5924;51.398;7.088;2023-01-19T05:49:05;0.40;99.90
11736;DHT22;5924;51.398;7.088;2023-01-19T05:51:32;0.40;99.90
11736;DHT22;5924;51.398;7.088;2023-01-19T05:54:06;0.30;99.90
11736;DHT22;5924;51.398;7.088;2023-01-19T05:56:32;0.30;99.90
11736;DHT22;5924;51.398;7.088;2023-01-19T05:58:59;0.30;99.90
11736;DHT22;5924;51.398;7.088;2023-01-19T06:01:24;0.30;99.90
11736;DHT22;5924;51.398;7.088;2023-01-19T06:03:50;0.30;99.90
11736;DHT22;5924;51.398;7.088;2023-01-19T06:06:16;0.30;99.90
11736;DHT22;5924;51.398;7.088;2023-01-19T06:08:43;0.30;99.90
11736;DHT22;5924;51.398;7.088;2023-01-19T06:11:09;0.30;99.90
11736;DHT22;5924;51.398;7.088;2023-01-19T06:13:35;0.30;99.90
11736;DHT22;5924;51.398;7.088;2023-01-19T06:16:01;0.20;99.90
11736;DHT22;5924;51.398;7.088;2023-01-19T06:18:28;0.20;99.90
11736;DHT22;5924;51.398;7.088;2023-01-19T06:20:54;0.30;99.90
11736;DHT22;5924;51.398;7.088;2023-01-19T06:23:28;0.30;99.90
11736;DHT22;5924;51.398;7.088;2023-01-19T06:25:54;0.30;99.90
11736;DHT22;5924;51.398;7.088;2023-01-19T06:28:20;0.40;99.90
11736;DHT22;5924;51.398;7.088;2023-01-19T06:30:53;0.30;99.90
11736;DHT22;5924;51.398;7.088;2023-01-19T06:33:19;0.30;99.90
11736;DHT22;5924;51.398;7.088;2023-01-19T06:35:46;0.30;99.90
11736;DHT22;5924;51.398;7.088;2023-01-19T06:38:12;0.30;99.90
11736;DHT22;5924;51.398;7.088;2023-01-19T06:40:39;0.20;99.90
11736;DHT22;5924;51.398;7.088;2023-01-19T06:43:06;0.20;99.90
11736;DHT22;5924;51.398;7.088;2023-01-19T06:45:32;0.20;99.90
11736;DHT22;5924;51.398;7.088;2023-01-19T06:47:58;0.20;99.90
11736;DHT22;5924;51.398;7.088;2023-01-19T06:50:23;0.10;99.90
11736;DHT22;5924;51.398;7.088;2023-01-19T06:52:50;0.10;99.90
11736;DHT22;5924;51.398;7.088;2023-01-19T06:55:16;0.10;99.90
11736;DHT22;5924;51.398;7.088;2023-01-19T06:57:42;2.50;99.90
11736;DHT22;5924;51.398;7.088;2023-01-19T07:00:10;0.10;99.90
11736;DHT22;5924;51.398;7.088;2023-01-19T07:02:39;0.10;99.90
11736;DHT22;5924;51.398;7.088;2023-01-19T07:05:05;0.10;99.90
11736;DHT22;5924;51.398;7.088;2023-01-19T07:07:31;0.10;99.90
11736;DHT22;5924;51.398;7.088;2023-01-19T07:09:57;0.10;99.90
11736;DHT22;5924;51.398;7.088;2023-01-19T07:12:23;0.10;99.90
11736;DHT22;5924;51.398;7.088;2023-01-19T07:14:48;0.10;99.90
11736;DHT22;5924;51.398;7.088;2023-01-19T07:17:14;0.10;99.90
11736;DHT22;5924;51.398;7.088;2023-01-19T07:19:40;0.10;99.90
11736;DHT22;5924;51.398;7.088;2023-01-19T07:22:05;0.10;99.90
11736;DHT22;5924;51.398;7.088;2023-01-19T07:24:31;0.20;99.90
11736;DHT22;5924;51.398;7.088;2023-01-19T07:26:59;0.20;99.90
11736;DHT22;5924;51.398;7.088;2023-01-19T07:29:24;0.30;99.90
11736;DHT22;5924;51.398;7.088;2023-01-19T07:31:50;0.30;99.90
11736;DHT22;5924;51.398;7.088;2023-01-19T07:34:19;0.30;99.90
11736;DHT22;5924;51.398;7.088;2023-01-19T07:36:45;0.30;99.90
11736;DHT22;5924;51.398;7.088;2023-01-19T07:39:11;0.30;99.90
11736;DHT22;5924;51.398;7.088;2023-01-19T07:41:37;0.30;99.90
11736;DHT22;5924;51.398;7.088;2023-01-19T07:44:03;0.30;99.90
11736;DHT22;5924;51.398;7.088;2023-01-19T07:46:28;0.40;99.90
11736;DHT22;5924;51.398;7.088;2023-01-19T07:48:54;0.40;99.90
11736;DHT22;5924;51.398;7.088;2023-01-19T07:51:20;0.40;99.90
11736;DHT22;5924;51.398;7.088;2023-01-19T07:53:45;0.50;99.90
11736;DHT22;5924;51.398;7.088;2023-01-19T07:56:11;0.50;99.90
11736;DHT22;5924;51.398;7.088;2023-01-19T07:58:38;0.50;99.90
11736;DHT22;5924;51.398;7.088;2023-01-19T08:01:08;0.50;99.90
11736;DHT22;5924;51.398;7.088;2023-01-19T08:03:34;-2.00;99.90
11736;DHT22;5924;51.398;7.088;2023-01-19T08:06:00;0.60;99.90
11736;DHT22;5924;51.398;7.088;2023-01-19T08:08:28;0.60;99.90
11736;DHT22;5924;51.398;7.088;2023-01-19T08:10:54;0.60;99.90
11736;DHT22;5924;51.398;7.088;2023-01-19T08:13:19;0.60;99.90
11736;DHT22;5924;51.398;7.088;2023-01-19T08:15:52;0.70;99.90
11736;DHT22;5924;51.398;7.088;2023-01-19T08:18:18;0.70;99.90
11736;DHT22;5924;51.398;7.088;2023-01-19T08:20:45;0.70;99.90
11736;DHT22;5924;51.398;7.088;2023-01-19T08:23:11;0.70;99.90
11736;DHT22;5924;51.398;7.088;2023-01-19T08:25:41;0.70;99.90
11736;DHT22;5924;51.398;7.088;2023-01-19T08:28:09;0.70;99.90
11736;DHT22;5924;51.398;7.088;2023-01-19T08:30:35;0.70;99.90
11736;DHT22;5924;51.398;7.088;2023-01-19T08:33:01;0.70;99.90
11736;DHT22;5924;51.398;7.088;2023-01-19T08:35:42;0.80;99.90
11736;DHT22;5924;51.398;7.088;2023-01-19T08:38:11;0.80;99.90
11736;DHT22;5924;51.398;7.088;2023-01-19T08:40:39;0.80;99.90
11736;DHT22;5924;51.398;7.088;2023-01-19T08:43:07;0.80;99.90
11736;DHT22;5924;51.398;7.088;2023-01-19T08:45:34;0.80;99.90
11736;DHT22;5924;51.398;7.088;2023-01-19T08:48:01;1.80;99.90
11736;DHT22;5924;51.398;7.088;2023-01-19T08:50:28;0.80;99.90
11736;DHT22;5924;51.398;7.088;2023-01-19T08:52:55;0.80;99.90
11736;DHT22;5924;51.398;7.088;2023-01-19T08:55:22;0.90;99.90
11736;DHT22;5924;51.398;7.088;2023-01-19T08:57:52;0.90;99.90
11736;DHT22;5924;51.398;7.088;2023-01-19T09:00:19;0.90;99.90
11736;DHT22;5924;51.398;7.088;2023-01-19T09:02:45;0.90;99.90
11736;DHT22;5924;51.398;7.088;2023-01-19T09:05:11;0.90;99.90
11736;DHT22;5924;51.398;7.088;2023-01-19T09:07:36;0.90;99.90
11736;DHT22;5924;51.398;7.088;2023-01-19T09:10:04;0.90;99.90
11736;DHT22;5924;51.398;7.088;2023-01-19T09:12:30;0.90;99.90
11736;DHT22;5924;51.398;7.088;2023-01-19T09:14:56;0.90;99.90
11736;DHT22;5924;51.398;7.088;2023-01-19T09:17:21;1.00;99.90
11736;DHT22;5924;51.398;7.088;2023-01-19T09:19:47;1.00;99.90
11736;DHT22;5924;51.398;7.088;2023-01-19T09:22:13;1.00;99.90
11736;DHT22;5924;51.398;7.088;2023-01-19T09:24:38;1.00;99.90
11736;DHT22;5924;51.398;7.088;2023-01-19T09:27:04;1.00;99.90
11736;DHT22;5924;51.398;7.088;2023-01-19T09:29:30;1.00;99.90
11736;DHT22;5924;51.398;7.088;2023-01-19T09:31:56;1.00;99.90
11736;DHT22;5924;51.398;7.088;2023-01-19T09:34:22;1.00;99.90
11736;DHT22;5924;51.398;7.088;2023-01-19T09:36:50;1.00;99.90
11736;DHT22;5924;51.398;7.088;2023-01-19T09:39:16;1.10;99.90
11736;DHT22;5924;51.398;7.088;2023-01-19T09:41:44;1.10;99.90
11736;DHT22;5924;51.398;7.088;2023-01-19T09:44:32;1.10;99.90
11736;DHT22;5924;51.398;7.088;2023-01-19T09:47:01;1.10;99.90
11736;DHT22;5924;51.398;7.088;2023-01-19T09:49:36;1.20;99.90
11736;DHT22;5924;51.398;7.088;2023-01-19T09:52:03;1.20;99.90
11736;DHT22;5924;51.398;7.088;2023-01-19T09:55:02;1.20;99.90
11736;DHT22;5924;51.398;7.088;2023-01-19T09:57:28;1.20;99.90
11736;DHT22;5924;51.398;7.088;2023-01-19T09:59:54;1.20;99.90
11736;DHT22;5924;51.398;7.088;2023-01-19T10:02:30;1.20;99.90
11736;DHT22;5924;51.398;7.088;2023-01-19T10:12:43;1.30;99.90
11736;DHT22;5924;51.398;7.088;2023-01-19T10:15:27;1.30;99.90
11736;DHT22;5924;51.398;7.088;2023-01-19T10:20:36;1.20;99.90
11736;DHT22;5924;51.398;7.088;2023-01-19T10:23:18;1.20;99.90
11736;DHT22;5924;51.398;7.088;2023-01-19T10:25:46;1.20;99.90
11736;DHT22;5924;51.398;7.088;2023-01-19T10:28:12;-0.70;99.90
11736;DHT22;5924;51.398;7.088;2023-01-19T10:30:41;1.30;99.90
11736;DHT22;5924;51.398;7.088;2023-01-19T10:33:12;1.30;99.90
11736;DHT22;5924;51.398;7.088;2023-01-19T10:35:37;3.80;99.90
11736;DHT22;5924;51.398;7.088;2023-01-19T10:38:03;1.20;99.90
11736;DHT22;5924;51.398;7.088;2023-01-19T10:40:54;1.30;99.90
11736;DHT22;5924;51.398;7.088;2023-01-19T10:46:04;1.30;99.90
11736;DHT22;5924;51.398;7.088;2023-01-19T10:48:38;0.70;99.90
11736;DHT22;5924;51.398;7.088;2023-01-19T10:51:13;1.40;99.90
11736;DHT22;5924;51.398;7.088;2023-01-19T10:53:41;1.50;99.90
11736;DHT22;5924;51.398;7.088;2023-01-19T10:56:20;1.50;99.90
11736;DHT22;5924;51.398;7.088;2023-01-19T10:58:46;1.50;99.90
11736;DHT22;5924;51.398;7.088;2023-01-19T11:01:14;1.50;99.90
11736;DHT22;5924;51.398;7.088;2023-01-19T11:03:40;1.60;99.90
11736;DHT22;5924;51.398;7.088;2023-01-19T11:08:41;1.80;99.90
11736;DHT22;5924;51.398;7.088;2023-01-19T11:11:08;1.90;99.90
11736;DHT22;5924;51.398;7.088;2023-01-19T11:13:36;1.90;99.90
11736;DHT22;5924;51.398;7.088;2023-01-19T11:16:24;1.80;99.90
11736;DHT22;5924;51.398;7.088;2023-01-19T11:18:53;1.80;99.90
11736;DHT22;5924;51.398;7.088;2023-01-19T11:21:23;1.70;99.90
11736;DHT22;5924;51.398;7.088;2023-01-19T11:23:55;1.60;99.90
11736;DHT22;5924;51.398;7.088;2023-01-19T11:26:41;1.60;99.90
11736;DHT22;5924;51.398;7.088;2023-01-19T11:29:33;1.60;99.90
11736;DHT22;5924;51.398;7.088;2023-01-19T11:32:20;1.60;99.90
11736;DHT22;5924;51.398;7.088;2023-01-19T11:34:47;1.60;99.90
11736;DHT22;5924;51.398;7.088;2023-01-19T11:39:53;1.60;99.90
11736;DHT22;5924;51.398;7.088;2023-01-19T11:42:20;1.50;99.90
11736;DHT22;5924;51.398;7.088;2023-01-19T11:45:12;1.50;99.90
11736;DHT22;5924;51.398;7.088;2023-01-19T11:47:47;1.50;99.90
11736;DHT22;5924;51.398;7.088;2023-01-19T11:53:24;1.40;99.90
11736;DHT22;5924;51.398;7.088;2023-01-19T11:56:05;3.00;99.90
11736;DHT22;5924;51.398;7.088;2023-01-19T11:58:37;1.50;99.90
11736;DHT22;5924;51.398;7.088;2023-01-19T12:03:51;1.50;99.90
11736;DHT22;5924;51.398;7.088;2023-01-19T12:06:23;1.60;99.90
11736;DHT22;5924;51.398;7.088;2023-01-19T12:09:12;1.60;99.90
11736;DHT22;5924;51.398;7.088;2023-01-19T12:12:05;1.60;99.90
11736;DHT22;5924;51.398;7.088;2023-01-19T12:14:35;1.60;99.90
11736;DHT22;5924;51.398;7.088;2023-01-19T12:17:04;1.60;99.90
11736;DHT22;5924;51.398;7.088;2023-01-19T12:19:48;1.60;99.90
11736;DHT22;5924;51.398;7.088;2023-01-19T12:22:18;1.70;99.90
11736;DHT22;5924;51.398;7.088;2023-01-19T12:25:13;1.70;99.90
11736;DHT22;5924;51.398;7.088;2023-01-19T12:27:43;1.70;99.90
11736;DHT22;5924;51.398;7.088;2023-01-19T12:30:30;1.80;99.90
11736;DHT22;5924;51.398;7.088;2023-01-19T12:39:27;1.80;99.90
11736;DHT22;5924;51.398;7.088;2023-01-19T12:42:14;1.80;99.90
11736;DHT22;5924;51.398;7.088;2023-01-19T12:44:43;1.80;99.90
11736;DHT22;5924;51.398;7.088;2023-01-19T12:58:07;1.90;99.90
11736;DHT22;5924;51.398;7.088;2023-01-19T13:00:39;1.90;99.90
11736;DHT22;5924;51.398;7.088;2023-01-19T13:13:35;1.80;99.90
11736;DHT22;5924;51.398;7.088;2023-01-19T13:21:32;1.80;99.90
11736;DHT22;5924;51.398;7.088;2023-01-19T13:24:01;1.80;99.90
11736;DHT22;5924;51.398;7.088;2023-01-19T13:26:31;1.80;99.90
11736;DHT22;5924;51.398;7.088;2023-01-19T13:29:04;1.80;99.90
11736;DHT22;5924;51.398;7.088;2023-01-19T13:31:35;1.90;99.90
11736;DHT22;5924;51.398;7.088;2023-01-19T13:34:03;2.00;99.90
11736;DHT22;5924;51.398;7.088;2023-01-19T13:36:37;2.10;99.90
11736;DHT22;5924;51.398;7.088;2023-01-19T13:39:11;2.10;99.90
11736;DHT22;5924;51.398;7.088;2023-01-19T13:41:39;2.20;99.90
11736;DHT22;5924;51.398;7.088;2023-01-19T13:44:23;0.70;99.90
11736;DHT22;5924;51.398;7.088;2023-01-19T13:46:50;2.40;99.90
11736;DHT22;5924;51.398;7.088;2023-01-19T13:49:35;2.70;99.90
11736;DHT22;5924;51.398;7.088;2023-01-19T13:52:13;2.90;99.90
11736;DHT22;5924;51.398;7.088;2023-01-19T13:54:57;2.90;99.90
11736;DHT22;5924;51.398;7.088;2023-01-19T14:02:28;1.60;99.90
11736;DHT22;5924;51.398;7.088;2023-01-19T14:04:54;2.60;99.90
11736;DHT22;5924;51.398;7.088;2023-01-19T14:07:22;2.40;99.90
11736;DHT22;5924;51.398;7.088;2023-01-19T14:10:01;2.30;99.90
11736;DHT22;5924;51.398;7.088;2023-01-19T14:12:27;2.20;99.90
11736;DHT22;5924;51.398;7.088;2023-01-19T14:14:53;2.10;99.90
11736;DHT22;5924;51.398;7.088;2023-01-19T14:17:23;2.10;99.90
11736;DHT22;5924;51.398;7.088;2023-01-19T14:19:51;2.10;99.90
11736;DHT22;5924;51.398;7.088;2023-01-19T14:22:17;2.10;99.90
11736;DHT22;5924;51.398;7.088;2023-01-19T14:24:43;2.10;99.90
11736;DHT22;5924;51.398;7.088;2023-01-19T14:29:42;2.20;99.90
11736;DHT22;5924;51.398;7.088;2023-01-19T14:32:18;2.30;99.90
11736;DHT22;5924;51.398;7.088;2023-01-19T14:34:45;2.40;99.90
11736;DHT22;5924;51.398;7.088;2023-01-19T14:37:27;2.30;99.90
11736;DHT22;5924;51.398;7.088;2023-01-19T14:45:21;2.20;99.90
11736;DHT22;5924;51.398;7.088;2023-01-19T14:47:57;2.10;99.90
11736;DHT22;5924;51.398;7.088;2023-01-19T14:52:57;1.90;99.90
11736;DHT22;5924;51.398;7.088;2023-01-19T14:55:57;1.80;99.90
11736;DHT22;5924;51.398;7.088;2023-01-19T14:58:25;1.70;99.90
11736;DHT22;5924;51.398;7.088;2023-01-19T15:00:51;1.60;99.90
11736;DHT22;5924;51.398;7.088;2023-01-19T15:03:24;1.60;99.90
11736;DHT22;5924;51.398;7.088;2023-01-19T15:05:50;1.60;99.90
11736;DHT22;5924;51.398;7.088;2023-01-19T15:08:31;1.70;99.90
11736;DHT22;5924;51.398;7.088;2023-01-19T15:11:02;1.80;99.90
11736;DHT22;5924;51.398;7.088;2023-01-19T15:13:31;1.80;99.90
11736;DHT22;5924;51.398;7.088;2023-01-19T15:15:57;1.90;99.90
11736;DHT22;5924;51.398;7.088;2023-01-19T15:18:24;1.90;99.90
11736;DHT22;5924;51.398;7.088;2023-01-19T15:20:54;1.80;99.90
11736;DHT22;5924;51.398;7.088;2023-01-19T15:23:21;1.70;99.90
11736;DHT22;5924;51.398;7.088;2023-01-19T15:25:47;1.60;99.90
11736;DHT22;5924;51.398;7.088;2023-01-19T15:28:16;1.50;99.90
11736;DHT22;5924;51.398;7.088;2023-01-19T15:30:42;1.40;99.90
11736;DHT22;5924;51.398;7.088;2023-01-19T15:33:28;1.20;99.90
11736;DHT22;5924;51.398;7.088;2023-01-19T15:35:55;1.10;99.90
11736;DHT22;5924;51.398;7.088;2023-01-19T15:38:20;1.10;99.90
11736;DHT22;5924;51.398;7.088;2023-01-19T15:40:47;1.00;99.90
11736;DHT22;5924;51.398;7.088;2023-01-19T15:43:13;0.90;99.90
11736;DHT22;5924;51.398;7.088;2023-01-19T15:48:11;0.90;99.90
11736;DHT22;5924;51.398;7.088;2023-01-19T15:50:39;1.00;99.90
11736;DHT22;5924;51.398;7.088;2023-01-19T15:53:05;1.00;99.90
11736;DHT22;5924;51.398;7.088;2023-01-19T15:55:31;1.00;99.90
11736;DHT22;5924;51.398;7.088;2023-01-19T15:57:57;0.90;99.90
11736;DHT22;5924;51.398;7.088;2023-01-19T16:00:29;1.00;99.90
11736;DHT22;5924;51.398;7.088;2023-01-19T16:02:55;0.80;99.90
11736;DHT22;5924;51.398;7.088;2023-01-19T16:05:21;0.80;99.90
11736;DHT22;5924;51.398;7.088;2023-01-19T16:07:47;0.80;99.90
11736;DHT22;5924;51.398;7.088;2023-01-19T16:10:14;0.80;99.90
11736;DHT22;5924;51.398;7.088;2023-01-19T16:12:42;0.90;99.90
11736;DHT22;5924;51.398;7.088;2023-01-19T16:15:08;0.80;99.90
11736;DHT22;5924;51.398;7.088;2023-01-19T16:17:33;0.80;99.90
11736;DHT22;5924;51.398;7.088;2023-01-19T16:19:59;1.10;99.90
11736;DHT22;5924;51.398;7.088;2023-01-19T16:22:25;0.50;99.90
11736;DHT22;5924;51.398;7.088;2023-01-19T16:24:50;0.50;99.90
11736;DHT22;5924;51.398;7.088;2023-01-19T16:27:17;0.50;99.90
11736;DHT22;5924;51.398;7.088;2023-01-19T16:29:43;0.60;99.90
11736;DHT22;5924;51.398;7.088;2023-01-19T16:32:08;1.10;99.90
11736;DHT22;5924;51.398;7.088;2023-01-19T16:34:34;0.80;99.90
11736;DHT22;5924;51.398;7.088;2023-01-19T16:37:00;0.80;99.90
11736;DHT22;5924;51.398;7.088;2023-01-19T16:39:25;0.90;99.90
11736;DHT22;5924;51.398;7.088;2023-01-19T16:41:51;0.90;99.90
11736;DHT22;5924;51.398;7.088;2023-01-19T16:44:16;2.90;99.90
11736;DHT22;5924;51.398;7.088;2023-01-19T16:46:44;1.00;99.90
11736;DHT22;5924;51.398;7.088;2023-01-19T16:49:13;1.00;99.90
11736;DHT22;5924;51.398;7.088;2023-01-19T16:51:40;0.90;99.90
11736;DHT22;5924;51.398;7.088;2023-01-19T16:54:06;1.00;99.90
11736;DHT22;5924;51.398;7.088;2023-01-19T16:56:32;1.00;99.90
11736;DHT22;5924;51.398;7.088;2023-01-19T16:58:58;2.10;99.90
11736;DHT22;5924;51.398;7.088;2023-01-19T17:01:26;1.00;99.90
11736;DHT22;5924;51.398;7.088;2023-01-19T17:03:52;1.00;99.90
11736;DHT22;5924;51.398;7.088;2023-01-19T17:06:19;1.10;99.90
11736;DHT22;5924;51.398;7.088;2023-01-19T17:08:47;1.10;99.90
11736;DHT22;5924;51.398;7.088;2023-01-19T17:11:18;1.10;99.90
11736;DHT22;5924;51.398;7.088;2023-01-19T17:13:49;1.10;99.90
11736;DHT22;5924;51.398;7.088;2023-01-19T17:16:16;1.10;99.90
11736;DHT22;5924;51.398;7.088;2023-01-19T17:18:42;1.10;99.90
11736;DHT22;5924;51.398;7.088;2023-01-19T17:21:09;1.10;99.90
11736;DHT22;5924;51.398;7.088;2023-01-19T17:23:35;1.20;99.90
11736;DHT22;5924;51.398;7.088;2023-01-19T17:26:03;1.20;99.90
11736;DHT22;5924;51.398;7.088;2023-01-19T17:28:29;1.20;99.90
11736;DHT22;5924;51.398;7.088;2023-01-19T17:30:55;1.20;99.90
11736;DHT22;5924;51.398;7.088;2023-01-19T17:33:23;1.20;99.90
11736;DHT22;5924;51.398;7.088;2023-01-19T17:35:49;1.30;99.90
11736;DHT22;5924;51.398;7.088;2023-01-19T17:38:15;1.30;99.90
11736;DHT22;5924;51.398;7.088;2023-01-19T17:40:41;1.30;99.90
11736;DHT22;5924;51.398;7.088;2023-01-19T17:43:07;1.30;99.90
11736;DHT22;5924;51.398;7.088;2023-01-19T17:45:34;1.40;99.90
11736;DHT22;5924;51.398;7.088;2023-01-19T17:48:00;1.40;99.90
11736;DHT22;5924;51.398;7.088;2023-01-19T17:50:26;1.40;99.90